sensor_id;sensor_type;location;lat;lon;timestamp;pressure;altitude;pressure_sealevel;temperature;humidity
5238;BME280;2639;49.700;7.962;2022-12-31T04:03:26;98333.94;;;14.00;100.00
5238;BME280;2639;49.700;7.962;2022-12-31T04:06:36;98336.69;;;14.03;100.00
5238;BME280;2639;49.700;7.962;2022-12-31T04:09:45;98326.84;;;14.13;100.00
5238;BME280;2639;49.700;7.962;2022-12-31T04:12:55;98330.56;;;14.18;100.00
5238;BME280;2639;49.700;7.962;2022-12-31T04:16:07;98326.56;;;14.23;100.00
5238;BME280;2639;49.700;7.962;2022-12-31T04:19:19;98334.09;;;14.20;100.00
5238;BME280;2639;49.700;7.962;2022-12-31T04:22:28;98336.06;;;14.24;100.00
5238;BME280;2639;49.700;7.962;2022-12-31T04:25:38;98339.28;;;14.20;100.00
5238;BME280;2639;49.700;7.962;2022-12-31T04:28:51;98361.72;;;14.21;100.00
5238;BME280;2639;49.700;7.962;2022-12-31T04:32:02;98355.75;;;14.22;100.00
5238;BME280;2639;49.700;7.962;2022-12-31T04:35:13;98337.66;;;14.22;100.00
5238;BME280;2639;49.700;7.962;2022-12-31T04:38:23;98354.63;;;14.17;100.00
5238;BME280;2639;49.700;7.962;2022-12-31T04:41:33;98365.81;;;14.17;100.00
5238;BME280;2639;49.700;7.962;2022-12-31T04:44:42;98368.16;;;14.13;100.00
5238;BME280;2639;49.700;7.962;2022-12-31T04:47:52;98350.19;;;14.14;100.00
5238;BME280;2639;49.700;7.962;2022-12-31T04:51:03;98361.38;;;14.15;100.00
5238;BME280;2639;49.700;7.962;2022-12-31T04:54:13;98375.44;;;14.20;100.00
5238;BME280;2639;49.700;7.962;2022-12-31T04:57:23;98376.75;;;14.28;100.00
5238;BME280;2639;49.700;7.962;2022-12-31T05:00:35;98379.47;;;14.31;100.00
5238;BME280;2639;49.700;7.962;2022-12-31T05:03:44;98390.69;;;14.31;100.00
5238;BME280;2639;49.700;7.962;2022-12-31T05:06:56;98376.25;;;14.35;100.00
5238;BME280;2639;49.700;7.962;2022-12-31T05:10:06;98366.09;;;14.38;100.00
5238;BME280;2639;49.700;7.962;2022-12-31T05:13:16;98359.88;;;14.35;100.00
5238;BME280;2639;49.700;7.962;2022-12-31T05:16:25;98366.97;;;14.39;100.00
5238;BME280;2639;49.700;7.962;2022-12-31T05:19:35;98383.78;;;14.30;100.00
5238;BME280;2639;49.700;7.962;2022-12-31T05:22:46;98386.59;;;14.35;100.00
5238;BME280;2639;49.700;7.962;2022-12-31T05:25:56;98379.19;;;14.41;100.00
5238;BME280;2639;49.700;7.962;2022-12-31T05:29:07;98382.03;;;14.46;100.00
5238;BME280;2639;49.700;7.962;2022-12-31T05:32:16;98394.53;;;14.55;100.00
5238;BME280;2639;49.700;7.962;2022-12-31T05:35:26;98398.09;;;14.57;100.00
5238;BME280;2639;49.700;7.962;2022-12-31T05:38:37;98398.94;;;14.56;100.00
5238;BME280;2639;49.700;7.962;2022-12-31T05:41:47;98412.00;;;14.59;100.00
5238;BME280;2639;49.700;7.962;2022-12-31T05:44:57;98399.91;;;14.58;100.00
5238;BME280;2639;49.700;7.962;2022-12-31T05:48:07;98418.25;;;14.47;100.00
5238;BME280;2639;49.700;7.962;2022-12-31T05:51:17;98418.44;;;14.50;100.00
5238;BME280;2639;49.700;7.962;2022-12-31T05:54:28;98416.63;;;14.49;100.00
5238;BME280;2639;49.700;7.962;2022-12-31T05:57:38;98413.25;;;14.50;100.00
5238;BME280;2639;49.700;7.962;2022-12-31T08:23:31;98557.63;;;14.15;99.19
5238;BME280;2639;49.700;7.962;2022-12-31T08:26:53;98564.06;;;14.06;100.00
5238;BME280;2639;49.700;7.962;2022-12-31T08:30:09;98564.75;;;14.19;99.46
5238;BME280;2639;49.700;7.962;2022-12-31T08:33:26;98559.59;;;14.19;98.22
5238;BME280;2639;49.700;7.962;2022-12-31T08:36:43;98550.41;;;14.24;98.40
5238;BME280;2639;49.700;7.962;2022-12-31T08:40:06;98542.28;;;14.18;98.46
5238;BME280;2639;49.700;7.962;2022-12-31T08:43:32;98546.06;;;14.23;98.35
5238;BME280;2639;49.700;7.962;2022-12-31T08:46:50;98553.97;;;14.26;98.21
5238;BME280;2639;49.700;7.962;2022-12-31T08:50:03;98565.78;;;14.37;96.54
5238;BME280;2639;49.700;7.962;2022-12-31T08:53:14;98559.38;;;14.30;96.89
5238;BME280;2639;49.700;7.962;2022-12-31T08:56:30;98563.94;;;14.35;96.61
5238;BME280;2639;49.700;7.962;2022-12-31T08:59:46;98565.78;;;14.37;96.18
5238;BME280;2639;49.700;7.962;2022-12-31T09:03:09;98561.78;;;14.42;95.55
5238;BME280;2639;49.700;7.962;2022-12-31T09:06:26;98578.59;;;14.50;96.12
5238;BME280;2639;49.700;7.962;2022-12-31T09:09:43;98566.13;;;14.43;94.73
5238;BME280;2639;49.700;7.962;2022-12-31T09:13:08;98572.94;;;14.41;95.29
5238;BME280;2639;49.700;7.962;2022-12-31T09:16:26;98559.72;;;14.51;95.20
5238;BME280;2639;49.700;7.962;2022-12-31T09:19:37;98556.31;;;14.52;93.81
5238;BME280;2639;49.700;7.962;2022-12-31T09:22:47;98561.69;;;14.41;94.47
5238;BME280;2639;49.700;7.962;2022-12-31T09:26:05;98574.31;;;14.36;94.31
5238;BME280;2639;49.700;7.962;2022-12-31T09:29:30;98570.97;;;14.37;94.82
5238;BME280;2639;49.700;7.962;2022-12-31T09:32:50;98582.69;;;14.47;94.61
5238;BME280;2639;49.700;7.962;2022-12-31T09:36:11;98587.31;;;14.52;93.85
5238;BME280;2639;49.700;7.962;2022-12-31T09:39:29;98593.13;;;14.63;93.78
5238;BME280;2639;49.700;7.962;2022-12-31T09:42:58;98583.78;;;14.65;91.49
5238;BME280;2639;49.700;7.962;2022-12-31T09:46:31;98589.97;;;14.69;91.48
5238;BME280;2639;49.700;7.962;2022-12-31T09:53:41;98586.75;;;14.88;89.91
5238;BME280;2639;49.700;7.962;2022-12-31T09:57:06;98584.69;;;14.82;90.93
5238;BME280;2639;49.700;7.962;2022-12-31T10:00:30;98599.47;;;14.85;89.63
5238;BME280;2639;49.700;7.962;2022-12-31T14:52:50;98562.91;;;16.08;71.89
5238;BME280;2639;49.700;7.962;2022-12-31T14:56:03;98559.09;;;16.02;71.69
5238;BME280;2639;49.700;7.962;2022-12-31T14:59:24;98575.75;;;16.07;71.80
5238;BME280;2639;49.700;7.962;2022-12-31T15:02:34;98573.09;;;16.05;71.27
5238;BME280;2639;49.700;7.962;2022-12-31T15:05:51;98567.75;;;16.02;70.98
5238;BME280;2639;49.700;7.962;2022-12-31T15:09:13;98576.19;;;15.98;71.54
5238;BME280;2639;49.700;7.962;2022-12-31T15:12:43;98573.84;;;15.86;71.74
5238;BME280;2639;49.700;7.962;2022-12-31T15:16:06;98566.44;;;15.76;71.76
5238;BME280;2639;49.700;7.962;2022-12-31T15:19:39;98569.19;;;15.79;72.85
5238;BME280;2639;49.700;7.962;2022-12-31T15:22:54;98579.84;;;15.69;72.77
5238;BME280;2639;49.700;7.962;2022-12-31T15:26:06;98580.50;;;15.65;72.52
5238;BME280;2639;49.700;7.962;2022-12-31T15:29:23;98568.94;;;15.58;72.43
5238;BME280;2639;49.700;7.962;2022-12-31T15:32:39;98580.75;;;15.53;72.24
5238;BME280;2639;49.700;7.962;2022-12-31T15:35:51;98586.06;;;15.56;72.31
5238;BME280;2639;49.700;7.962;2022-12-31T15:39:06;98583.41;;;15.54;72.46
5238;BME280;2639;49.700;7.962;2022-12-31T15:42:40;98588.66;;;15.56;72.60
5238;BME280;2639;49.700;7.962;2022-12-31T15:45:58;98591.09;;;15.53;71.51
5238;BME280;2639;49.700;7.962;2022-12-31T15:49:11;98586.31;;;15.44;71.62
5238;BME280;2639;49.700;7.962;2022-12-31T15:52:27;98595.06;;;15.46;72.62
5238;BME280;2639;49.700;7.962;2022-12-31T15:55:42;98599.00;;;15.40;72.58
5238;BME280;2639;49.700;7.962;2022-12-31T15:58:57;98591.59;;;15.29;72.68
5238;BME280;2639;49.700;7.962;2022-12-31T16:02:17;98585.75;;;15.33;72.60
5238;BME280;2639;49.700;7.962;2022-12-31T16:05:27;98591.09;;;15.20;72.39
5238;BME280;2639;49.700;7.962;2022-12-31T16:08:37;98590.38;;;15.23;72.72
5238;BME280;2639;49.700;7.962;2022-12-31T16:11:49;98596.25;;;15.20;73.49
5238;BME280;2639;49.700;7.962;2022-12-31T16:15:01;98593.44;;;15.15;73.22
5238;BME280;2639;49.700;7.962;2022-12-31T16:18:11;98607.50;;;15.21;72.26
5238;BME280;2639;49.700;7.962;2022-12-31T16:21:31;98613.03;;;15.12;72.75
5238;BME280;2639;49.700;7.962;2022-12-31T16:24:42;98612.16;;;15.11;72.70
5238;BME280;2639;49.700;7.962;2022-12-31T16:28:15;98608.84;;;15.14;72.48
5238;BME280;2639;49.700;7.962;2022-12-31T16:31:28;98607.53;;;15.06;72.95
5238;BME280;2639;49.700;7.962;2022-12-31T16:34:38;98609.47;;;15.10;72.56
5238;BME280;2639;49.700;7.962;2022-12-31T16:37:59;98597.53;;;15.12;72.98
5238;BME280;2639;49.700;7.962;2022-12-31T16:41:16;98600.13;;;15.12;72.99
5238;BME280;2639;49.700;7.962;2022-12-31T16:44:28;98591.38;;;15.10;72.70
5238;BME280;2639;49.700;7.962;2022-12-31T16:47:39;98587.03;;;15.09;72.18
5238;BME280;2639;49.700;7.962;2022-12-31T16:50:52;98594.94;;;15.12;71.94
5238;BME280;2639;49.700;7.962;2022-12-31T16:54:03;98594.13;;;15.13;71.79
5238;BME280;2639;49.700;7.962;2022-12-31T16:57:18;98588.25;;;15.15;71.18
5238;BME280;2639;49.700;7.962;2022-12-31T17:00:30;98590.91;;;15.17;70.47
5238;BME280;2639;49.700;7.962;2022-12-31T17:03:44;98578.84;;;15.18;70.54
5238;BME280;2639;49.700;7.962;2022-12-31T17:07:23;98594.38;;;15.18;69.98
5238;BME280;2639;49.700;7.962;2022-12-31T17:10:34;98584.13;;;15.19;69.79
5238;BME280;2639;49.700;7.962;2022-12-31T17:13:52;98586.94;;;15.24;69.25
5238;BME280;2639;49.700;7.962;2022-12-31T17:17:04;98588.09;;;15.29;68.67
5238;BME280;2639;49.700;7.962;2022-12-31T17:20:22;98596.56;;;15.26;69.16
5238;BME280;2639;49.700;7.962;2022-12-31T17:23:34;98591.41;;;15.26;68.99
5238;BME280;2639;49.700;7.962;2022-12-31T17:26:44;98591.09;;;15.20;68.18
5238;BME280;2639;49.700;7.962;2022-12-31T17:30:18;98592.84;;;15.21;67.80
5238;BME280;2639;49.700;7.962;2022-12-31T17:33:29;98592.13;;;15.24;67.71
5238;BME280;2639;49.700;7.962;2022-12-31T17:36:52;98598.59;;;15.15;67.33
5238;BME280;2639;49.700;7.962;2022-12-31T17:40:03;98613.38;;;15.18;67.88
5238;BME280;2639;49.700;7.962;2022-12-31T17:43:35;98604.81;;;15.19;67.77
5238;BME280;2639;49.700;7.962;2022-12-31T17:46:45;98615.72;;;15.13;68.07
5238;BME280;2639;49.700;7.962;2022-12-31T17:49:56;98602.69;;;15.12;68.42
5238;BME280;2639;49.700;7.962;2022-12-31T17:53:11;98615.47;;;15.09;68.08
5238;BME280;2639;49.700;7.962;2022-12-31T17:56:21;98617.56;;;15.00;68.62
5238;BME280;2639;49.700;7.962;2022-12-31T17:59:32;98628.78;;;15.00;67.90
5238;BME280;2639;49.700;7.962;2022-12-31T18:02:42;98615.94;;;15.02;68.43
5238;BME280;2639;49.700;7.962;2022-12-31T18:05:52;98623.63;;;15.00;68.68
5238;BME280;2639;49.700;7.962;2022-12-31T18:09:03;98630.66;;;15.03;67.81
5238;BME280;2639;49.700;7.962;2022-12-31T18:12:13;98620.88;;;14.97;69.44
5238;BME280;2639;49.700;7.962;2022-12-31T18:15:24;98617.38;;;14.97;68.79
5238;BME280;2639;49.700;7.962;2022-12-31T18:18:34;98644.03;;;14.96;68.96
5238;BME280;2639;49.700;7.962;2022-12-31T18:21:47;98628.63;;;14.97;68.77
5238;BME280;2639;49.700;7.962;2022-12-31T18:24:58;98622.53;;;14.97;69.54
5238;BME280;2639;49.700;7.962;2022-12-31T18:28:08;98632.56;;;14.90;69.54
5238;BME280;2639;49.700;7.962;2022-12-31T18:31:21;98643.06;;;14.93;70.00
5238;BME280;2639;49.700;7.962;2022-12-31T18:34:32;98633.09;;;14.85;69.79
5238;BME280;2639;49.700;7.962;2022-12-31T18:37:42;98646.47;;;14.92;70.06
5238;BME280;2639;49.700;7.962;2022-12-31T18:40:55;98640.69;;;14.82;70.46
5238;BME280;2639;49.700;7.962;2022-12-31T18:44:05;98640.78;;;14.83;70.93
5238;BME280;2639;49.700;7.962;2022-12-31T18:47:17;98648.53;;;14.83;70.74
5238;BME280;2639;49.700;7.962;2022-12-31T18:50:30;98650.94;;;14.80;70.60
5238;BME280;2639;49.700;7.962;2022-12-31T18:53:40;98647.72;;;14.84;70.73
5238;BME280;2639;49.700;7.962;2022-12-31T18:56:52;98649.69;;;14.73;70.44
5238;BME280;2639;49.700;7.962;2022-12-31T19:00:05;98640.97;;;14.71;70.33
5238;BME280;2639;49.700;7.962;2022-12-31T19:03:18;98634.19;;;14.73;70.77
5238;BME280;2639;49.700;7.962;2022-12-31T19:06:29;98634.28;;;14.75;69.06
5238;BME280;2639;49.700;7.962;2022-12-31T19:09:39;98632.56;;;14.76;69.14
5238;BME280;2639;49.700;7.962;2022-12-31T19:12:55;98641.31;;;14.78;68.57
5238;BME280;2639;49.700;7.962;2022-12-31T19:16:05;98643.81;;;14.76;67.63
5238;BME280;2639;49.700;7.962;2022-12-31T19:19:15;98645.94;;;14.83;67.88
5238;BME280;2639;49.700;7.962;2022-12-31T19:22:25;98642.03;;;14.75;68.59
5238;BME280;2639;49.700;7.962;2022-12-31T19:25:45;98647.19;;;14.75;68.74
5238;BME280;2639;49.700;7.962;2022-12-31T19:28:56;98642.75;;;14.72;68.68
5238;BME280;2639;49.700;7.962;2022-12-31T19:32:06;98643.47;;;14.70;69.21
5238;BME280;2639;49.700;7.962;2022-12-31T19:35:16;98636.59;;;14.70;70.12
5238;BME280;2639;49.700;7.962;2022-12-31T19:38:26;98647.75;;;14.69;70.07
5238;BME280;2639;49.700;7.962;2022-12-31T19:41:40;98656.03;;;14.64;70.71
5238;BME280;2639;49.700;7.962;2022-12-31T19:44:52;98659.88;;;14.56;72.22
5238;BME280;2639;49.700;7.962;2022-12-31T19:48:01;98657.72;;;14.63;71.44
5238;BME280;2639;49.700;7.962;2022-12-31T19:51:16;98663.44;;;14.58;71.80
5238;BME280;2639;49.700;7.962;2022-12-31T19:54:27;98663.25;;;14.55;72.14
5238;BME280;2639;49.700;7.962;2022-12-31T19:57:39;98668.41;;;14.55;71.80
5238;BME280;2639;49.700;7.962;2022-12-31T20:00:51;98671.63;;;14.50;72.47
5238;BME280;2639;49.700;7.962;2022-12-31T20:04:09;98679.00;;;14.44;73.23
5238;BME280;2639;49.700;7.962;2022-12-31T20:07:19;98678.44;;;14.50;72.18
5238;BME280;2639;49.700;7.962;2022-12-31T20:10:35;98670.69;;;14.50;72.63
5238;BME280;2639;49.700;7.962;2022-12-31T20:13:46;98676.41;;;14.44;72.96
5238;BME280;2639;49.700;7.962;2022-12-31T20:16:57;98676.06;;;14.38;72.51
5238;BME280;2639;49.700;7.962;2022-12-31T20:20:08;98671.97;;;14.42;72.51
5238;BME280;2639;49.700;7.962;2022-12-31T20:23:17;98689.25;;;14.43;73.40
5238;BME280;2639;49.700;7.962;2022-12-31T20:26:27;98677.13;;;14.42;73.36
5238;BME280;2639;49.700;7.962;2022-12-31T20:29:37;98677.84;;;14.39;74.15
5238;BME280;2639;49.700;7.962;2022-12-31T20:32:48;98676.41;;;14.44;74.46
5238;BME280;2639;49.700;7.962;2022-12-31T20:36:00;98680.59;;;14.42;74.25
5238;BME280;2639;49.700;7.962;2022-12-31T20:39:13;98685.16;;;14.46;74.26
5238;BME280;2639;49.700;7.962;2022-12-31T20:42:23;98686.59;;;14.41;74.76
5238;BME280;2639;49.700;7.962;2022-12-31T20:45:33;98678.91;;;14.43;75.66
5238;BME280;2639;49.700;7.962;2022-12-31T20:48:45;98684.44;;;14.49;74.65
5238;BME280;2639;49.700;7.962;2022-12-31T20:51:55;98674.81;;;14.46;76.04
5238;BME280;2639;49.700;7.962;2022-12-31T20:55:05;98684.88;;;14.42;75.23
5238;BME280;2639;49.700;7.962;2022-12-31T20:58:17;98677.75;;;14.38;75.47
5238;BME280;2639;49.700;7.962;2022-12-31T21:01:27;98673.66;;;14.41;75.68
5238;BME280;2639;49.700;7.962;2022-12-31T21:04:58;98673.22;;;14.48;74.73
5238;BME280;2639;49.700;7.962;2022-12-31T21:08:08;98670.91;;;14.53;74.29
5238;BME280;2639;49.700;7.962;2022-12-31T21:11:18;98682.03;;;14.52;74.12
5238;BME280;2639;49.700;7.962;2022-12-31T21:14:39;98689.78;;;14.52;74.13
5238;BME280;2639;49.700;7.962;2022-12-31T21:17:52;98678.56;;;14.51;74.19
5238;BME280;2639;49.700;7.962;2022-12-31T21:21:03;98692.69;;;14.43;75.13
5238;BME280;2639;49.700;7.962;2022-12-31T21:24:13;98686.38;;;14.38;74.93
5238;BME280;2639;49.700;7.962;2022-12-31T21:27:31;98697.81;;;14.42;75.44
5238;BME280;2639;49.700;7.962;2022-12-31T21:30:41;98703.59;;;14.38;76.05
5238;BME280;2639;49.700;7.962;2022-12-31T21:33:50;98696.38;;;14.32;75.37
5238;BME280;2639;49.700;7.962;2022-12-31T21:37:01;98706.50;;;14.29;76.37
5238;BME280;2639;49.700;7.962;2022-12-31T21:40:11;98709.91;;;14.28;76.11
5238;BME280;2639;49.700;7.962;2022-12-31T21:43:21;98718.44;;;14.27;75.42
5238;BME280;2639;49.700;7.962;2022-12-31T21:46:31;98724.41;;;14.26;76.08
5238;BME280;2639;49.700;7.962;2022-12-31T21:49:41;98727.53;;;14.20;75.37
5238;BME280;2639;49.700;7.962;2022-12-31T21:52:52;98738.19;;;14.12;75.58
5238;BME280;2639;49.700;7.962;2022-12-31T21:56:02;98734.00;;;14.14;75.73
5238;BME280;2639;49.700;7.962;2022-12-31T21:59:19;98734.78;;;14.13;75.75
5238;BME280;2639;49.700;7.962;2022-12-31T22:02:39;98741.56;;;14.10;76.11
5238;BME280;2639;49.700;7.962;2022-12-31T22:06:08;98741.38;;;14.07;76.41
5238;BME280;2639;49.700;7.962;2022-12-31T22:09:21;98743.16;;;14.08;77.37
5238;BME280;2639;49.700;7.962;2022-12-31T22:12:31;98744.56;;;14.03;77.17
5238;BME280;2639;49.700;7.962;2022-12-31T22:15:41;98737.25;;;13.96;77.85
5238;BME280;2639;49.700;7.962;2022-12-31T22:18:53;98736.19;;;13.93;78.83
5238;BME280;2639;49.700;7.962;2022-12-31T22:22:03;98733.09;;;13.85;79.51
5238;BME280;2639;49.700;7.962;2022-12-31T22:25:15;98734.97;;;13.87;79.08
5238;BME280;2639;49.700;7.962;2022-12-31T22:28:25;98742.56;;;13.84;79.83
5238;BME280;2639;49.700;7.962;2022-12-31T22:31:50;98745.25;;;13.86;79.79
5238;BME280;2639;49.700;7.962;2022-12-31T22:35:08;98745.25;;;13.86;80.34
5238;BME280;2639;49.700;7.962;2022-12-31T22:38:18;98762.50;;;13.87;79.68
5238;BME280;2639;49.700;7.962;2022-12-31T22:41:29;98751.81;;;13.81;80.93
5238;BME280;2639;49.700;7.962;2022-12-31T22:44:38;98765.66;;;13.83;81.10
5238;BME280;2639;49.700;7.962;2022-12-31T22:47:48;98764.78;;;13.82;80.72
5238;BME280;2639;49.700;7.962;2022-12-31T22:50:58;98750.19;;;13.83;79.87
5238;BME280;2639;49.700;7.962;2022-12-31T22:54:08;98762.41;;;13.85;79.46
5238;BME280;2639;49.700;7.962;2022-12-31T22:57:19;98763.19;;;13.84;80.39
5238;BME280;2639;49.700;7.962;2022-12-31T23:00:39;98770.47;;;13.77;80.25
5238;BME280;2639;49.700;7.962;2022-12-31T23:03:51;98767.78;;;13.75;80.13
5238;BME280;2639;49.700;7.962;2022-12-31T23:07:01;98773.84;;;13.76;80.01
5238;BME280;2639;49.700;7.962;2022-12-31T23:10:10;98767.09;;;13.78;79.80
5238;BME280;2639;49.700;7.962;2022-12-31T23:13:37;98774.81;;;13.78;80.05
5238;BME280;2639;49.700;7.962;2022-12-31T23:16:58;98763.72;;;13.79;80.34
5238;BME280;2639;49.700;7.962;2022-12-31T23:20:39;98761.91;;;13.78;80.83
5238;BME280;2639;49.700;7.962;2022-12-31T23:24:00;98758.97;;;13.72;81.46
5238;BME280;2639;49.700;7.962;2022-12-31T23:27:11;98764.63;;;13.66;81.87
5238;BME280;2639;49.700;7.962;2022-12-31T23:30:23;98775.25;;;13.57;83.17
5238;BME280;2639;49.700;7.962;2022-12-31T23:33:32;98771.50;;;13.65;82.20
5238;BME280;2639;49.700;7.962;2022-12-31T23:36:42;98767.91;;;13.63;82.89
5238;BME280;2639;49.700;7.962;2022-12-31T23:39:52;98759.88;;;13.59;83.60
5238;BME280;2639;49.700;7.962;2022-12-31T23:43:03;98776.66;;;13.65;83.10
5238;BME280;2639;49.700;7.962;2022-12-31T23:46:15;98766.50;;;13.68;83.22
5238;BME280;2639;49.700;7.962;2022-12-31T23:49:25;98769.91;;;13.67;82.82
5238;BME280;2639;49.700;7.962;2022-12-31T23:52:35;98764.34;;;13.61;83.50
5238;BME280;2639;49.700;7.962;2022-12-31T23:55:45;98774.19;;;13.54;84.21
5238;BME280;2639;49.700;7.962;2022-12-31T23:58:56;98770.63;;;13.52;84.09
